Dee White — WCW4132 — position and weather

sailwx.info

Track history (hours):
 
Tides and Currents Weather Stations Pressure Air Temp Water Temp Dewpoint Dewpoint Depression Visibility Wind Speed Wind Dir Waves Ship Positions

Dee White

Owner: E.N Bisso & Son, Inc., New Orleans, LA. More information available from US FCC via Universal Licensing System and Coast Guard Vessel Documentation Center.

Last reported at 2016-May-19 15:17 UTC. Time now 2016-May-30 04:58 UTC.
Position N 29°46' W 090°01'.
Warning: this ship's position is 10 days out of date.

Length 35 m.

Type: Towing. MMSI: 368185000.

Date/timePositionNaut miles runAvg speedWind from/ knotsBaromVisibWave heightAir tempDewpointWater temp
2016-May-19 15:17N 29°46' W 090°01'4 3.9
2016-May-19 14:22N 29°50' W 089°60'4 4.6
2016-May-19 13:33N 29°52' W 089°57'1 1.3
2016-May-19 12:31N 29°53' W 089°58'2 0.7
2016-May-19 10:07N 29°51' W 089°59'0 0.0
2016-May-19 09:20N 29°51' W 089°59'0 0.0
2016-May-19 05:34N 29°51' W 089°59'5 0.2
2016-May-18 00:08N 29°46' W 090°01'711.5
2016-May-17 23:30N 29°53' W 089°57'0 0.4
2016-May-17 22:34N 29°53' W 089°56'0 0.0
2016-May-17 21:19N 29°53' W 089°56'0 0.0
2016-May-17 19:34N 29°53' W 089°56'0 0.0
2016-May-17 17:32N 29°53' W 089°56'0 0.0
2016-May-17 16:33N 29°53' W 089°56'4 3.8
2016-May-17 15:32N 29°50' W 089°60'  
2016-May-14 12:32N 29°42' W 089°59'5 2.4
2016-May-14 10:29N 29°46' W 090°02'  
2016-May-10 16:31N 29°50' W 089°60'5 5.6
2016-May-10 15:32N 29°55' W 089°58'0 0.5
2016-May-10 14:33N 29°56' W 089°59'1 1.0
2016-May-10 13:32N 29°55' W 089°58'4 3.6
2016-May-10 12:33N 29°57' W 090°01'0 0.0
2016-May-10 11:33N 29°57' W 090°01'6 6.5
2016-May-10 10:34N 29°57' W 090°09'2 2.2
2016-May-10 09:33N 29°55' W 090°08'7 6.6
2016-May-10 08:33N 29°57' W 090°01'5 3.1
2016-May-10 07:05N 29°53' W 089°58'  
Track history (hours):
 
Tides and Currents Weather Stations Pressure Air Temp Water Temp Dewpoint Dewpoint Depression Visibility Wind Speed Wind Dir Waves Ship Positions

Dee White

Owner: E.N Bisso & Son, Inc., New Orleans, LA. More information available from US FCC via Universal Licensing System and Coast Guard Vessel Documentation Center.

Last reported at 2016-May-19 15:17 UTC. Time now 2016-May-30 04:58 UTC.
Position N 29°46' W 090°01'.
Warning: this ship's position is 10 days out of date.

Length 35 m.

Type: Towing. MMSI: 368185000.

Date/timePositionNaut miles runAvg speedWind from/ knotsBaromVisibWave heightAir tempDewpointWater temp
2016-May-19 15:17N 29°46' W 090°01'4 3.9
2016-May-19 14:22N 29°50' W 089°60'4 4.6
2016-May-19 13:33N 29°52' W 089°57'1 1.3
2016-May-19 12:31N 29°53' W 089°58'2 0.7
2016-May-19 10:07N 29°51' W 089°59'0 0.0
2016-May-19 09:20N 29°51' W 089°59'0 0.0
2016-May-19 05:34N 29°51' W 089°59'5 0.2
2016-May-18 00:08N 29°46' W 090°01'711.5
2016-May-17 23:30N 29°53' W 089°57'0 0.4
2016-May-17 22:34N 29°53' W 089°56'0 0.0
2016-May-17 21:19N 29°53' W 089°56'0 0.0
2016-May-17 19:34N 29°53' W 089°56'0 0.0
2016-May-17 17:32N 29°53' W 089°56'0 0.0
2016-May-17 16:33N 29°53' W 089°56'4 3.8
2016-May-17 15:32N 29°50' W 089°60'  
2016-May-14 12:32N 29°42' W 089°59'5 2.4
2016-May-14 10:29N 29°46' W 090°02'  
2016-May-10 16:31N 29°50' W 089°60'5 5.6
2016-May-10 15:32N 29°55' W 089°58'0 0.5
2016-May-10 14:33N 29°56' W 089°59'1 1.0
2016-May-10 13:32N 29°55' W 089°58'4 3.6
2016-May-10 12:33N 29°57' W 090°01'0 0.0
2016-May-10 11:33N 29°57' W 090°01'6 6.5
2016-May-10 10:34N 29°57' W 090°09'2 2.2
2016-May-10 09:33N 29°55' W 090°08'7 6.6
2016-May-10 08:33N 29°57' W 090°01'5 3.1
2016-May-10 07:05N 29°53' W 089°58'  

Dump ship's entire track history